sensor_id;sensor_type;location;lat;lon;timestamp;temperature;humidity
69776;DHT22;57049;51.450;-2.516;2023-11-19T00:02:19;11.78;94.49
69776;DHT22;57049;51.450;-2.516;2023-11-19T00:04:45;11.70;94.45
69776;DHT22;57049;51.450;-2.516;2023-11-19T00:07:11;11.64;94.62
69776;DHT22;57049;51.450;-2.516;2023-11-19T00:09:38;11.60;94.81
69776;DHT22;57049;51.450;-2.516;2023-11-19T00:12:05;11.53;94.99
69776;DHT22;57049;51.450;-2.516;2023-11-19T00:14:31;11.46;95.23
69776;DHT22;57049;51.450;-2.516;2023-11-19T00:16:56;11.42;95.51
69776;DHT22;57049;51.450;-2.516;2023-11-19T00:19:22;11.44;95.55
69776;DHT22;57049;51.450;-2.516;2023-11-19T00:21:47;11.44;95.69
69776;DHT22;57049;51.450;-2.516;2023-11-19T00:24:13;11.43;95.81
69776;DHT22;57049;51.450;-2.516;2023-11-19T00:26:41;11.52;95.77
69776;DHT22;57049;51.450;-2.516;2023-11-19T00:29:07;11.53;95.79
69776;DHT22;57049;51.450;-2.516;2023-11-19T00:31:32;11.59;95.54
69776;DHT22;57049;51.450;-2.516;2023-11-19T00:33:58;11.54;95.46
69776;DHT22;57049;51.450;-2.516;2023-11-19T00:36:23;11.42;95.62
69776;DHT22;57049;51.450;-2.516;2023-11-19T00:38:49;11.36;95.58
69776;DHT22;57049;51.450;-2.516;2023-11-19T00:41:15;11.25;95.93
69776;DHT22;57049;51.450;-2.516;2023-11-19T00:43:42;11.33;95.70
69776;DHT22;57049;51.450;-2.516;2023-11-19T00:46:07;11.29;95.71
69776;DHT22;57049;51.450;-2.516;2023-11-19T00:48:33;11.20;95.87
69776;DHT22;57049;51.450;-2.516;2023-11-19T00:50:59;11.19;95.91
69776;DHT22;57049;51.450;-2.516;2023-11-19T00:53:24;11.15;96.12
69776;DHT22;57049;51.450;-2.516;2023-11-19T00:55:50;11.11;96.34
69776;DHT22;57049;51.450;-2.516;2023-11-19T00:58:15;11.02;96.60
69776;DHT22;57049;51.450;-2.516;2023-11-19T01:00:42;11.05;96.61
69776;DHT22;57049;51.450;-2.516;2023-11-19T01:03:08;11.11;96.45
69776;DHT22;57049;51.450;-2.516;2023-11-19T01:05:33;11.05;96.42
69776;DHT22;57049;51.450;-2.516;2023-11-19T01:08:02;11.06;96.41
69776;DHT22;57049;51.450;-2.516;2023-11-19T01:10:30;11.08;96.27
69776;DHT22;57049;51.450;-2.516;2023-11-19T01:12:55;11.06;96.22
69776;DHT22;57049;51.450;-2.516;2023-11-19T01:15:21;11.03;96.22
69776;DHT22;57049;51.450;-2.516;2023-11-19T01:17:46;11.03;96.25
69776;DHT22;57049;51.450;-2.516;2023-11-19T01:20:12;11.03;96.22
69776;DHT22;57049;51.450;-2.516;2023-11-19T01:22:38;10.99;96.32
69776;DHT22;57049;51.450;-2.516;2023-11-19T01:25:05;11.01;96.23
69776;DHT22;57049;51.450;-2.516;2023-11-19T01:27:30;10.99;96.32
69776;DHT22;57049;51.450;-2.516;2023-11-19T01:29:56;11.01;96.32
69776;DHT22;57049;51.450;-2.516;2023-11-19T01:32:21;11.01;96.28
69776;DHT22;57049;51.450;-2.516;2023-11-19T01:34:49;11.03;96.31
69776;DHT22;57049;51.450;-2.516;2023-11-19T01:37:14;11.06;96.48
69776;DHT22;57049;51.450;-2.516;2023-11-19T01:39:43;11.13;96.27
69776;DHT22;57049;51.450;-2.516;2023-11-19T01:42:08;11.20;95.95
69776;DHT22;57049;51.450;-2.516;2023-11-19T01:44:34;11.18;95.76
69776;DHT22;57049;51.450;-2.516;2023-11-19T01:46:59;11.16;95.68
69776;DHT22;57049;51.450;-2.516;2023-11-19T01:49:25;11.08;95.78
69776;DHT22;57049;51.450;-2.516;2023-11-19T01:51:51;11.09;95.85
69776;DHT22;57049;51.450;-2.516;2023-11-19T01:54:17;11.05;95.89
69776;DHT22;57049;51.450;-2.516;2023-11-19T01:56:42;11.01;95.94
69776;DHT22;57049;51.450;-2.516;2023-11-19T01:59:09;11.09;95.82
69776;DHT22;57049;51.450;-2.516;2023-11-19T02:01:36;11.12;95.80
69776;DHT22;57049;51.450;-2.516;2023-11-19T02:04:06;11.06;95.76
69776;DHT22;57049;51.450;-2.516;2023-11-19T02:06:33;11.02;95.86
69776;DHT22;57049;51.450;-2.516;2023-11-19T02:08:58;11.01;95.95
69776;DHT22;57049;51.450;-2.516;2023-11-19T02:11:24;10.99;95.97
69776;DHT22;57049;51.450;-2.516;2023-11-19T02:13:55;10.94;96.10
69776;DHT22;57049;51.450;-2.516;2023-11-19T02:16:21;10.89;96.47
69776;DHT22;57049;51.450;-2.516;2023-11-19T02:18:46;10.92;96.45
69776;DHT22;57049;51.450;-2.516;2023-11-19T02:21:12;11.03;96.24
69776;DHT22;57049;51.450;-2.516;2023-11-19T02:23:40;11.01;96.26
69776;DHT22;57049;51.450;-2.516;2023-11-19T02:28:41;10.96;96.01
69776;DHT22;57049;51.450;-2.516;2023-11-19T02:31:07;10.95;96.01
69776;DHT22;57049;51.450;-2.516;2023-11-19T02:33:38;11.05;95.77
69776;DHT22;57049;51.450;-2.516;2023-11-19T02:36:07;11.05;95.79
69776;DHT22;57049;51.450;-2.516;2023-11-19T02:38:34;11.03;95.70
69776;DHT22;57049;51.450;-2.516;2023-11-19T02:41:03;11.13;95.25
69776;DHT22;57049;51.450;-2.516;2023-11-19T02:43:34;11.13;95.25
69776;DHT22;57049;51.450;-2.516;2023-11-19T02:46:01;11.20;95.05
69776;DHT22;57049;51.450;-2.516;2023-11-19T02:48:26;11.33;94.20
69776;DHT22;57049;51.450;-2.516;2023-11-19T02:50:52;11.33;94.18
69776;DHT22;57049;51.450;-2.516;2023-11-19T02:53:17;11.42;93.79
69776;DHT22;57049;51.450;-2.516;2023-11-19T02:55:43;11.37;93.51
69776;DHT22;57049;51.450;-2.516;2023-11-19T02:58:14;11.37;93.21
69776;DHT22;57049;51.450;-2.516;2023-11-19T03:00:48;11.43;92.99
69776;DHT22;57049;51.450;-2.516;2023-11-19T03:03:19;11.39;92.91
69776;DHT22;57049;51.450;-2.516;2023-11-19T03:05:48;11.37;92.80
69776;DHT22;57049;51.450;-2.516;2023-11-19T03:08:15;11.39;92.59
69776;DHT22;57049;51.450;-2.516;2023-11-19T03:10:41;11.39;92.52
69776;DHT22;57049;51.450;-2.516;2023-11-19T03:13:11;11.36;92.52
69776;DHT22;57049;51.450;-2.516;2023-11-19T03:15:38;11.35;92.76
69776;DHT22;57049;51.450;-2.516;2023-11-19T03:18:03;11.42;92.62
69776;DHT22;57049;51.450;-2.516;2023-11-19T03:20:29;11.47;92.37
69776;DHT22;57049;51.450;-2.516;2023-11-19T03:22:55;11.59;91.99
69776;DHT22;57049;51.450;-2.516;2023-11-19T03:25:25;11.64;91.91
69776;DHT22;57049;51.450;-2.516;2023-11-19T03:27:52;11.64;91.83
69776;DHT22;57049;51.450;-2.516;2023-11-19T03:30:18;11.69;91.78
69776;DHT22;57049;51.450;-2.516;2023-11-19T03:32:44;11.67;92.12
69776;DHT22;57049;51.450;-2.516;2023-11-19T03:35:09;11.60;94.16
69776;DHT22;57049;51.450;-2.516;2023-11-19T03:37:37;11.47;94.99
69776;DHT22;57049;51.450;-2.516;2023-11-19T03:40:02;11.40;95.79
69776;DHT22;57049;51.450;-2.516;2023-11-19T03:42:29;11.30;96.51
69776;DHT22;57049;51.450;-2.516;2023-11-19T03:44:57;11.25;96.89
69776;DHT22;57049;51.450;-2.516;2023-11-19T03:47:23;11.18;97.39
69776;DHT22;57049;51.450;-2.516;2023-11-19T03:49:49;11.08;97.77
69776;DHT22;57049;51.450;-2.516;2023-11-19T03:52:15;11.11;97.89
69776;DHT22;57049;51.450;-2.516;2023-11-19T03:54:41;11.05;98.36
69776;DHT22;57049;51.450;-2.516;2023-11-19T03:57:06;10.99;98.83
69776;DHT22;57049;51.450;-2.516;2023-11-19T03:59:32;10.96;99.03
69776;DHT22;57049;51.450;-2.516;2023-11-19T04:01:58;10.94;99.41
69776;DHT22;57049;51.450;-2.516;2023-11-19T04:04:26;10.98;99.45
69776;DHT22;57049;51.450;-2.516;2023-11-19T04:06:52;10.89;99.91
69776;DHT22;57049;51.450;-2.516;2023-11-19T04:09:17;10.91;99.71
69776;DHT22;57049;51.450;-2.516;2023-11-19T04:11:43;10.89;99.73
69776;DHT22;57049;51.450;-2.516;2023-11-19T04:14:08;10.92;99.60
69776;DHT22;57049;51.450;-2.516;2023-11-19T04:16:35;10.85;99.53
69776;DHT22;57049;51.450;-2.516;2023-11-19T04:19:00;10.79;99.37
69776;DHT22;57049;51.450;-2.516;2023-11-19T04:21:26;10.78;99.55
69776;DHT22;57049;51.450;-2.516;2023-11-19T04:23:52;10.79;99.58
69776;DHT22;57049;51.450;-2.516;2023-11-19T04:26:17;10.85;99.63
69776;DHT22;57049;51.450;-2.516;2023-11-19T04:28:43;10.85;99.35
69776;DHT22;57049;51.450;-2.516;2023-11-19T04:31:08;10.84;99.23
69776;DHT22;57049;51.450;-2.516;2023-11-19T04:33:34;10.88;98.84
69776;DHT22;57049;51.450;-2.516;2023-11-19T04:36:00;10.91;98.62
69776;DHT22;57049;51.450;-2.516;2023-11-19T04:38:25;10.94;98.41
69776;DHT22;57049;51.450;-2.516;2023-11-19T04:40:52;10.95;98.28
69776;DHT22;57049;51.450;-2.516;2023-11-19T04:43:17;10.92;98.51
69776;DHT22;57049;51.450;-2.516;2023-11-19T04:45:43;10.92;98.59
69776;DHT22;57049;51.450;-2.516;2023-11-19T04:48:09;10.89;98.88
69776;DHT22;57049;51.450;-2.516;2023-11-19T04:50:34;10.88;99.20
69776;DHT22;57049;51.450;-2.516;2023-11-19T04:53:00;10.86;99.33
69776;DHT22;57049;51.450;-2.516;2023-11-19T04:55:25;10.81;99.58
69776;DHT22;57049;51.450;-2.516;2023-11-19T04:57:50;10.71;99.59
69776;DHT22;57049;51.450;-2.516;2023-11-19T05:00:19;10.64;99.69
69776;DHT22;57049;51.450;-2.516;2023-11-19T05:02:44;10.58;99.85
69776;DHT22;57049;51.450;-2.516;2023-11-19T05:05:10;10.58;99.96
69776;DHT22;57049;51.450;-2.516;2023-11-19T05:07:35;10.55;99.99
69776;DHT22;57049;51.450;-2.516;2023-11-19T05:10:01;10.58;99.80
69776;DHT22;57049;51.450;-2.516;2023-11-19T05:12:28;10.60;99.69
69776;DHT22;57049;51.450;-2.516;2023-11-19T05:14:53;10.61;99.49
69776;DHT22;57049;51.450;-2.516;2023-11-19T05:17:19;10.60;99.29
69776;DHT22;57049;51.450;-2.516;2023-11-19T05:19:45;10.57;99.29
69776;DHT22;57049;51.450;-2.516;2023-11-19T05:22:11;10.62;99.19
69776;DHT22;57049;51.450;-2.516;2023-11-19T05:24:38;10.62;98.94
69776;DHT22;57049;51.450;-2.516;2023-11-19T05:27:04;10.64;98.86
69776;DHT22;57049;51.450;-2.516;2023-11-19T05:29:30;10.67;98.63
69776;DHT22;57049;51.450;-2.516;2023-11-19T05:31:55;10.68;98.24
69776;DHT22;57049;51.450;-2.516;2023-11-19T05:34:21;10.68;98.15
69776;DHT22;57049;51.450;-2.516;2023-11-19T05:36:47;10.64;97.97
69776;DHT22;57049;51.450;-2.516;2023-11-19T05:39:12;10.67;97.68
69776;DHT22;57049;51.450;-2.516;2023-11-19T05:41:38;10.71;97.41
69776;DHT22;57049;51.450;-2.516;2023-11-19T05:44:04;10.72;97.21
69776;DHT22;57049;51.450;-2.516;2023-11-19T05:46:29;10.74;96.87
69776;DHT22;57049;51.450;-2.516;2023-11-19T05:48:55;10.74;96.89
69776;DHT22;57049;51.450;-2.516;2023-11-19T05:51:20;10.82;96.50
69776;DHT22;57049;51.450;-2.516;2023-11-19T05:53:46;10.84;96.45
69776;DHT22;57049;51.450;-2.516;2023-11-19T05:56:11;10.86;96.13
69776;DHT22;57049;51.450;-2.516;2023-11-19T05:58:37;10.84;96.09
69776;DHT22;57049;51.450;-2.516;2023-11-19T06:01:05;10.81;96.21
69776;DHT22;57049;51.450;-2.516;2023-11-19T06:03:32;10.85;96.11
69776;DHT22;57049;51.450;-2.516;2023-11-19T06:05:58;10.89;95.97
69776;DHT22;57049;51.450;-2.516;2023-11-19T06:08:23;11.02;95.72
69776;DHT22;57049;51.450;-2.516;2023-11-19T06:10:49;11.06;95.63
69776;DHT22;57049;51.450;-2.516;2023-11-19T06:13:15;11.05;95.23
69776;DHT22;57049;51.450;-2.516;2023-11-19T06:15:42;11.15;95.05
69776;DHT22;57049;51.450;-2.516;2023-11-19T06:18:07;11.12;95.11
69776;DHT22;57049;51.450;-2.516;2023-11-19T06:20:34;11.16;94.69
69776;DHT22;57049;51.450;-2.516;2023-11-19T06:23:00;11.23;94.22
69776;DHT22;57049;51.450;-2.516;2023-11-19T06:25:25;11.32;93.70
69776;DHT22;57049;51.450;-2.516;2023-11-19T06:27:51;11.33;93.57
69776;DHT22;57049;51.450;-2.516;2023-11-19T06:30:17;11.39;93.61
69776;DHT22;57049;51.450;-2.516;2023-11-19T06:32:43;11.35;94.16
69776;DHT22;57049;51.450;-2.516;2023-11-19T06:35:08;11.29;94.62
69776;DHT22;57049;51.450;-2.516;2023-11-19T06:37:35;11.20;95.61
69776;DHT22;57049;51.450;-2.516;2023-11-19T06:40:01;11.11;95.95
69776;DHT22;57049;51.450;-2.516;2023-11-19T06:42:27;11.03;96.45
69776;DHT22;57049;51.450;-2.516;2023-11-19T06:44:52;11.01;96.46
69776;DHT22;57049;51.450;-2.516;2023-11-19T06:47:18;11.03;96.30
69776;DHT22;57049;51.450;-2.516;2023-11-19T06:49:44;10.98;96.49
69776;DHT22;57049;51.450;-2.516;2023-11-19T06:52:09;10.99;96.28
69776;DHT22;57049;51.450;-2.516;2023-11-19T06:54:35;11.01;96.12
69776;DHT22;57049;51.450;-2.516;2023-11-19T06:57:01;11.09;95.86
69776;DHT22;57049;51.450;-2.516;2023-11-19T06:59:27;11.08;95.88
69776;DHT22;57049;51.450;-2.516;2023-11-19T07:01:54;10.99;96.03
69776;DHT22;57049;51.450;-2.516;2023-11-19T07:04:19;10.98;95.99
69776;DHT22;57049;51.450;-2.516;2023-11-19T07:06:45;10.95;96.06
69776;DHT22;57049;51.450;-2.516;2023-11-19T07:09:10;10.89;96.10
69776;DHT22;57049;51.450;-2.516;2023-11-19T07:11:40;10.88;96.20
69776;DHT22;57049;51.450;-2.516;2023-11-19T07:14:07;10.79;96.43
69776;DHT22;57049;51.450;-2.516;2023-11-19T07:16:33;10.79;96.66
69776;DHT22;57049;51.450;-2.516;2023-11-19T07:19:05;10.85;96.54
69776;DHT22;57049;51.450;-2.516;2023-11-19T07:21:34;10.85;96.77
69776;DHT22;57049;51.450;-2.516;2023-11-19T07:24:01;10.92;96.74
69776;DHT22;57049;51.450;-2.516;2023-11-19T07:26:27;10.99;96.85
69776;DHT22;57049;51.450;-2.516;2023-11-19T07:28:53;10.94;97.42
69776;DHT22;57049;51.450;-2.516;2023-11-19T07:31:18;10.89;97.90
69776;DHT22;57049;51.450;-2.516;2023-11-19T07:33:45;10.88;98.08
69776;DHT22;57049;51.450;-2.516;2023-11-19T07:36:12;10.88;98.15
69776;DHT22;57049;51.450;-2.516;2023-11-19T07:38:37;10.86;98.55
69776;DHT22;57049;51.450;-2.516;2023-11-19T07:41:05;10.85;98.71
69776;DHT22;57049;51.450;-2.516;2023-11-19T07:43:31;10.95;98.72
69776;DHT22;57049;51.450;-2.516;2023-11-19T07:45:56;10.89;98.66
69776;DHT22;57049;51.450;-2.516;2023-11-19T07:48:24;10.85;98.65
69776;DHT22;57049;51.450;-2.516;2023-11-19T07:50:50;10.91;98.38
69776;DHT22;57049;51.450;-2.516;2023-11-19T07:53:19;10.92;98.19
69776;DHT22;57049;51.450;-2.516;2023-11-19T07:55:45;10.92;98.04
69776;DHT22;57049;51.450;-2.516;2023-11-19T07:58:11;10.91;98.08
69776;DHT22;57049;51.450;-2.516;2023-11-19T08:00:37;10.96;97.84
69776;DHT22;57049;51.450;-2.516;2023-11-19T08:03:04;10.96;97.62
69776;DHT22;57049;51.450;-2.516;2023-11-19T08:05:31;10.99;97.37
69776;DHT22;57049;51.450;-2.516;2023-11-19T08:07:56;10.98;97.39
69776;DHT22;57049;51.450;-2.516;2023-11-19T08:10:22;11.03;97.29
69776;DHT22;57049;51.450;-2.516;2023-11-19T08:12:48;11.13;97.21
69776;DHT22;57049;51.450;-2.516;2023-11-19T08:15:14;11.18;96.58
69776;DHT22;57049;51.450;-2.516;2023-11-19T08:17:41;11.25;96.47
69776;DHT22;57049;51.450;-2.516;2023-11-19T08:20:07;11.27;96.26
69776;DHT22;57049;51.450;-2.516;2023-11-19T08:22:36;11.33;96.10
69776;DHT22;57049;51.450;-2.516;2023-11-19T08:25:04;11.37;95.99
69776;DHT22;57049;51.450;-2.516;2023-11-19T08:27:29;11.36;95.97
69776;DHT22;57049;51.450;-2.516;2023-11-19T08:29:55;11.43;95.68
69776;DHT22;57049;51.450;-2.516;2023-11-19T08:32:25;11.44;95.54
69776;DHT22;57049;51.450;-2.516;2023-11-19T08:34:51;11.50;95.39
69776;DHT22;57049;51.450;-2.516;2023-11-19T08:37:17;11.50;95.52
69776;DHT22;57049;51.450;-2.516;2023-11-19T08:39:48;11.43;96.27
69776;DHT22;57049;51.450;-2.516;2023-11-19T08:42:14;11.40;96.75
69776;DHT22;57049;51.450;-2.516;2023-11-19T08:44:39;11.35;97.10
69776;DHT22;57049;51.450;-2.516;2023-11-19T08:47:09;11.33;97.39
69776;DHT22;57049;51.450;-2.516;2023-11-19T08:49:34;11.30;97.75
69776;DHT22;57049;51.450;-2.516;2023-11-19T08:52:00;11.27;97.78
69776;DHT22;57049;51.450;-2.516;2023-11-19T08:54:26;11.33;97.74
69776;DHT22;57049;51.450;-2.516;2023-11-19T08:56:51;11.35;97.68
69776;DHT22;57049;51.450;-2.516;2023-11-19T08:59:16;11.33;97.42
69776;DHT22;57049;51.450;-2.516;2023-11-19T09:01:42;11.43;97.27
69776;DHT22;57049;51.450;-2.516;2023-11-19T09:04:08;11.43;97.01
69776;DHT22;57049;51.450;-2.516;2023-11-19T09:06:35;11.47;96.86
69776;DHT22;57049;51.450;-2.516;2023-11-19T09:09:01;11.56;96.35
69776;DHT22;57049;51.450;-2.516;2023-11-19T09:11:28;11.62;96.10
69776;DHT22;57049;51.450;-2.516;2023-11-19T09:13:54;11.64;95.96
69776;DHT22;57049;51.450;-2.516;2023-11-19T09:16:20;11.70;95.97
69776;DHT22;57049;51.450;-2.516;2023-11-19T09:18:45;11.71;95.61
69776;DHT22;57049;51.450;-2.516;2023-11-19T09:21:11;11.76;95.30
69776;DHT22;57049;51.450;-2.516;2023-11-19T09:23:37;11.78;95.03
69776;DHT22;57049;51.450;-2.516;2023-11-19T09:26:05;11.86;94.64
69776;DHT22;57049;51.450;-2.516;2023-11-19T09:28:31;11.90;94.59
69776;DHT22;57049;51.450;-2.516;2023-11-19T09:30:57;11.97;94.23
69776;DHT22;57049;51.450;-2.516;2023-11-19T09:33:22;12.01;94.25
69776;DHT22;57049;51.450;-2.516;2023-11-19T09:35:48;11.97;93.91
69776;DHT22;57049;51.450;-2.516;2023-11-19T09:38:15;11.97;94.15
69776;DHT22;57049;51.450;-2.516;2023-11-19T09:40:43;11.94;94.52
69776;DHT22;57049;51.450;-2.516;2023-11-19T09:43:09;11.94;94.58
69776;DHT22;57049;51.450;-2.516;2023-11-19T09:45:48;11.87;94.93
69776;DHT22;57049;51.450;-2.516;2023-11-19T09:48:16;11.90;94.53
69776;DHT22;57049;51.450;-2.516;2023-11-19T09:50:45;11.93;94.37
69776;DHT22;57049;51.450;-2.516;2023-11-19T09:53:10;11.97;94.28
69776;DHT22;57049;51.450;-2.516;2023-11-19T09:55:36;11.98;94.13
69776;DHT22;57049;51.450;-2.516;2023-11-19T09:58:01;11.93;94.29
69776;DHT22;57049;51.450;-2.516;2023-11-19T10:00:27;11.99;94.08
69776;DHT22;57049;51.450;-2.516;2023-11-19T10:02:54;12.08;93.95
69776;DHT22;57049;51.450;-2.516;2023-11-19T10:05:20;12.08;93.88
69776;DHT22;57049;51.450;-2.516;2023-11-19T10:07:46;12.10;93.55
69776;DHT22;57049;51.450;-2.516;2023-11-19T10:10:12;12.17;93.35
69776;DHT22;57049;51.450;-2.516;2023-11-19T10:12:43;12.15;93.73
69776;DHT22;57049;51.450;-2.516;2023-11-19T10:15:17;12.15;94.25
69776;DHT22;57049;51.450;-2.516;2023-11-19T10:17:44;11.98;95.52
69776;DHT22;57049;51.450;-2.516;2023-11-19T10:20:10;11.88;96.28
69776;DHT22;57049;51.450;-2.516;2023-11-19T10:22:39;11.81;96.53
69776;DHT22;57049;51.450;-2.516;2023-11-19T10:25:08;11.80;96.70
69776;DHT22;57049;51.450;-2.516;2023-11-19T10:27:47;11.81;96.86
69776;DHT22;57049;51.450;-2.516;2023-11-19T10:30:17;11.91;96.88
69776;DHT22;57049;51.450;-2.516;2023-11-19T10:32:43;11.98;96.56
69776;DHT22;57049;51.450;-2.516;2023-11-19T10:35:09;12.11;96.14
69776;DHT22;57049;51.450;-2.516;2023-11-19T10:37:40;12.18;95.65
69776;DHT22;57049;51.450;-2.516;2023-11-19T10:40:06;12.14;95.39
69776;DHT22;57049;51.450;-2.516;2023-11-19T10:42:35;12.18;95.26
69776;DHT22;57049;51.450;-2.516;2023-11-19T10:45:02;12.22;95.16
69776;DHT22;57049;51.450;-2.516;2023-11-19T10:47:27;12.34;94.49
69776;DHT22;57049;51.450;-2.516;2023-11-19T10:49:55;12.39;94.56
69776;DHT22;57049;51.450;-2.516;2023-11-19T10:52:21;12.39;94.37
69776;DHT22;57049;51.450;-2.516;2023-11-19T10:54:50;12.45;94.56
69776;DHT22;57049;51.450;-2.516;2023-11-19T10:57:25;12.44;94.62
69776;DHT22;57049;51.450;-2.516;2023-11-19T11:00:00;12.46;94.28
69776;DHT22;57049;51.450;-2.516;2023-11-19T11:02:27;12.46;93.86
69776;DHT22;57049;51.450;-2.516;2023-11-19T11:04:57;12.48;93.88
69776;DHT22;57049;51.450;-2.516;2023-11-19T11:07:23;12.49;93.80
69776;DHT22;57049;51.450;-2.516;2023-11-19T11:09:51;12.48;93.64
69776;DHT22;57049;51.450;-2.516;2023-11-19T11:12:21;12.46;93.74
69776;DHT22;57049;51.450;-2.516;2023-11-19T11:14:48;12.46;93.85
69776;DHT22;57049;51.450;-2.516;2023-11-19T11:17:17;12.48;93.88
69776;DHT22;57049;51.450;-2.516;2023-11-19T11:19:43;12.46;94.02
69776;DHT22;57049;51.450;-2.516;2023-11-19T11:22:09;12.44;94.19
69776;DHT22;57049;51.450;-2.516;2023-11-19T11:27:34;12.46;94.05
69776;DHT22;57049;51.450;-2.516;2023-11-19T11:35:55;12.55;94.93
69776;DHT22;57049;51.450;-2.516;2023-11-19T11:38:28;12.55;95.48
69776;DHT22;57049;51.450;-2.516;2023-11-19T11:49:05;12.25;97.74
69776;DHT22;57049;51.450;-2.516;2023-11-19T11:54:25;12.14;99.01
69776;DHT22;57049;51.450;-2.516;2023-11-19T12:02:08;12.07;99.99
69776;DHT22;57049;51.450;-2.516;2023-11-19T12:04:34;12.04;99.99
69776;DHT22;57049;51.450;-2.516;2023-11-19T12:07:05;12.02;99.99
69776;DHT22;57049;51.450;-2.516;2023-11-19T12:09:32;12.07;99.99
69776;DHT22;57049;51.450;-2.516;2023-11-19T12:20:05;12.18;99.91
69776;DHT22;57049;51.450;-2.516;2023-11-19T12:22:43;12.21;99.79
69776;DHT22;57049;51.450;-2.516;2023-11-19T12:25:11;12.27;99.29
69776;DHT22;57049;51.450;-2.516;2023-11-19T12:27:41;12.28;99.04
69776;DHT22;57049;51.450;-2.516;2023-11-19T12:30:07;12.34;98.84
69776;DHT22;57049;51.450;-2.516;2023-11-19T12:32:44;12.41;98.64
69776;DHT22;57049;51.450;-2.516;2023-11-19T12:35:10;12.45;98.43
69776;DHT22;57049;51.450;-2.516;2023-11-19T12:37:44;12.46;98.13
69776;DHT22;57049;51.450;-2.516;2023-11-19T12:40:24;12.52;97.63
69776;DHT22;57049;51.450;-2.516;2023-11-19T12:42:52;12.63;97.23
69776;DHT22;57049;51.450;-2.516;2023-11-19T12:45:18;12.73;97.10
69776;DHT22;57049;51.450;-2.516;2023-11-19T12:47:45;12.80;96.80
69776;DHT22;57049;51.450;-2.516;2023-11-19T12:50:15;12.89;96.62
69776;DHT22;57049;51.450;-2.516;2023-11-19T12:52:55;12.96;96.01
69776;DHT22;57049;51.450;-2.516;2023-11-19T12:55:28;13.04;95.81
69776;DHT22;57049;51.450;-2.516;2023-11-19T12:57:54;13.06;95.70
69776;DHT22;57049;51.450;-2.516;2023-11-19T13:00:25;13.09;95.23
69776;DHT22;57049;51.450;-2.516;2023-11-19T13:02:57;13.14;95.18
69776;DHT22;57049;51.450;-2.516;2023-11-19T13:05:33;13.11;95.06
69776;DHT22;57049;51.450;-2.516;2023-11-19T13:10:27;13.06;94.85
69776;DHT22;57049;51.450;-2.516;2023-11-19T13:13:02;13.06;95.02
69776;DHT22;57049;51.450;-2.516;2023-11-19T13:15:29;13.02;94.85
69776;DHT22;57049;51.450;-2.516;2023-11-19T13:17:54;13.06;94.74
69776;DHT22;57049;51.450;-2.516;2023-11-19T13:20:20;13.19;93.50
69776;DHT22;57049;51.450;-2.516;2023-11-19T13:22:59;13.14;93.66
69776;DHT22;57049;51.450;-2.516;2023-11-19T13:25:26;13.17;93.72
69776;DHT22;57049;51.450;-2.516;2023-11-19T13:27:52;13.20;93.45
69776;DHT22;57049;51.450;-2.516;2023-11-19T13:30:17;13.23;93.35
69776;DHT22;57049;51.450;-2.516;2023-11-19T13:32:43;13.21;93.20
69776;DHT22;57049;51.450;-2.516;2023-11-19T13:35:11;13.17;93.28
69776;DHT22;57049;51.450;-2.516;2023-11-19T13:37:37;13.16;93.41
69776;DHT22;57049;51.450;-2.516;2023-11-19T13:40:03;13.13;93.75
69776;DHT22;57049;51.450;-2.516;2023-11-19T13:42:29;13.17;93.48
69776;DHT22;57049;51.450;-2.516;2023-11-19T13:44:54;13.24;93.13
69776;DHT22;57049;51.450;-2.516;2023-11-19T13:47:21;13.34;92.69
69776;DHT22;57049;51.450;-2.516;2023-11-19T13:49:47;13.44;91.38
69776;DHT22;57049;51.450;-2.516;2023-11-19T13:52:12;13.39;91.93
69776;DHT22;57049;51.450;-2.516;2023-11-19T13:54:38;13.28;92.24
69776;DHT22;57049;51.450;-2.516;2023-11-19T13:57:04;13.24;92.55
69776;DHT22;57049;51.450;-2.516;2023-11-19T13:59:30;13.16;92.80
69776;DHT22;57049;51.450;-2.516;2023-11-19T14:01:57;13.10;92.97
69776;DHT22;57049;51.450;-2.516;2023-11-19T14:04:23;13.20;92.93
69776;DHT22;57049;51.450;-2.516;2023-11-19T14:06:48;13.24;92.98
69776;DHT22;57049;51.450;-2.516;2023-11-19T14:09:14;13.23;92.41
69776;DHT22;57049;51.450;-2.516;2023-11-19T14:11:40;13.16;92.09
69776;DHT22;57049;51.450;-2.516;2023-11-19T14:14:05;13.17;92.56
69776;DHT22;57049;51.450;-2.516;2023-11-19T14:16:31;13.33;92.08
69776;DHT22;57049;51.450;-2.516;2023-11-19T14:18:57;13.37;92.12
69776;DHT22;57049;51.450;-2.516;2023-11-19T14:21:23;13.41;92.01
69776;DHT22;57049;51.450;-2.516;2023-11-19T14:23:48;13.36;91.98
69776;DHT22;57049;51.450;-2.516;2023-11-19T14:26:13;13.21;92.23
69776;DHT22;57049;51.450;-2.516;2023-11-19T14:28:39;13.09;92.77
69776;DHT22;57049;51.450;-2.516;2023-11-19T14:31:05;13.07;93.33
69776;DHT22;57049;51.450;-2.516;2023-11-19T14:33:30;13.06;93.60
69776;DHT22;57049;51.450;-2.516;2023-11-19T14:35:56;13.00;93.57
69776;DHT22;57049;51.450;-2.516;2023-11-19T14:38:24;12.93;93.87
69776;DHT22;57049;51.450;-2.516;2023-11-19T14:40:49;12.92;94.35
69776;DHT22;57049;51.450;-2.516;2023-11-19T14:43:15;12.85;94.69
69776;DHT22;57049;51.450;-2.516;2023-11-19T14:45:41;12.85;94.73
69776;DHT22;57049;51.450;-2.516;2023-11-19T14:48:06;12.89;94.65
69776;DHT22;57049;51.450;-2.516;2023-11-19T14:50:32;12.83;94.46
69776;DHT22;57049;51.450;-2.516;2023-11-19T14:52:57;12.80;94.16
69776;DHT22;57049;51.450;-2.516;2023-11-19T14:55:23;12.75;94.01
69776;DHT22;57049;51.450;-2.516;2023-11-19T14:57:49;12.72;93.60
69776;DHT22;57049;51.450;-2.516;2023-11-19T15:00:16;12.75;93.35
69776;DHT22;57049;51.450;-2.516;2023-11-19T15:02:41;12.76;93.45
69776;DHT22;57049;51.450;-2.516;2023-11-19T15:05:08;12.79;93.66
69776;DHT22;57049;51.450;-2.516;2023-11-19T15:07:37;12.69;93.84
69776;DHT22;57049;51.450;-2.516;2023-11-19T15:10:03;12.69;94.14
69776;DHT22;57049;51.450;-2.516;2023-11-19T15:12:29;12.72;94.21
69776;DHT22;57049;51.450;-2.516;2023-11-19T15:14:55;12.70;94.23
69776;DHT22;57049;51.450;-2.516;2023-11-19T15:17:21;12.65;94.33
69776;DHT22;57049;51.450;-2.516;2023-11-19T15:19:47;12.63;94.47
69776;DHT22;57049;51.450;-2.516;2023-11-19T15:22:13;12.65;93.94
69776;DHT22;57049;51.450;-2.516;2023-11-19T15:24:38;12.59;93.45
69776;DHT22;57049;51.450;-2.516;2023-11-19T15:27:06;12.60;93.20
69776;DHT22;57049;51.450;-2.516;2023-11-19T15:29:34;12.58;92.86
69776;DHT22;57049;51.450;-2.516;2023-11-19T15:32:00;12.58;92.67
69776;DHT22;57049;51.450;-2.516;2023-11-19T15:34:25;12.59;92.31
69776;DHT22;57049;51.450;-2.516;2023-11-19T15:36:51;12.59;92.05
69776;DHT22;57049;51.450;-2.516;2023-11-19T15:39:16;12.50;92.28
69776;DHT22;57049;51.450;-2.516;2023-11-19T15:41:42;12.55;92.23
69776;DHT22;57049;51.450;-2.516;2023-11-19T15:44:07;12.49;92.69
69776;DHT22;57049;51.450;-2.516;2023-11-19T15:46:33;12.49;92.93
69776;DHT22;57049;51.450;-2.516;2023-11-19T15:48:58;12.46;93.07
69776;DHT22;57049;51.450;-2.516;2023-11-19T15:51:24;12.42;94.02